Aintree, United Kingdom
Current Conditions -  °F | °C
As of 10:50 PM on Thursday 20 Nov 2014 (Local Time) from EGGP Reporting Station
Clear Clear  
Wind Chill: 37°   Ceiling: Unl
Heat Index: 43°   Visibility: 4mi
Dew Point: 41°   Wind: 9mph
Humidity: 93%   Direction: 100°E
Pressure: 30.24"   Gusts: NA
Location:  53.48°N, 2.94°W
Report Text: EGGP 202250Z 10008KT 7000 NSC 06/05 Q1024
Loading
Personal Weather Stations






























Interactive Weather Map New forecast layout! Learn more

10-Day Weather Forecast

Advertisements
Track Severe Weather on mobile